createdAt,value
2022-08-27T00:02:08.809Z,23.50
2022-08-27T00:05:14.577Z,23.52
2022-08-27T00:08:17.469Z,23.52
2022-08-27T00:11:22.191Z,23.43
2022-08-27T00:14:27.601Z,23.48
2022-08-27T00:17:30.572Z,23.46
2022-08-27T00:20:33.593Z,23.44
2022-08-27T00:23:36.953Z,23.42
2022-08-27T00:26:43.212Z,23.30
2022-08-27T00:29:47.698Z,23.30
2022-08-27T00:32:50.497Z,23.25
2022-08-27T00:35:53.878Z,23.19
2022-08-27T00:38:56.575Z,23.18
2022-08-27T00:42:01.108Z,23.06
2022-08-27T00:45:06.751Z,22.90
2022-08-27T00:48:15.841Z,22.96
2022-08-27T00:51:22.235Z,22.86
2022-08-27T00:54:28.918Z,22.76
2022-08-27T00:57:32.706Z,22.66
2022-08-27T01:00:36.464Z,22.61
2022-08-27T01:03:40.234Z,22.66
2022-08-27T01:06:43.163Z,22.60
2022-08-27T01:09:48.446Z,22.60
2022-08-27T01:12:54.599Z,22.51
2022-08-27T01:15:59.306Z,22.49
2022-08-27T01:19:07.541Z,22.45
2022-08-27T01:22:37.733Z,22.46
2022-08-27T01:25:44.039Z,22.30
2022-08-27T01:28:48.931Z,22.31
2022-08-27T01:31:51.833Z,22.18
2022-08-27T01:34:55.022Z,22.11
2022-08-27T01:37:58.743Z,22.17
2022-08-27T01:41:02.297Z,22.28
2022-08-27T01:44:05.198Z,22.26
2022-08-27T01:47:08.277Z,22.19
2022-08-27T01:50:18.349Z,22.22
2022-08-27T01:53:24.908Z,22.16
2022-08-27T01:56:28.375Z,22.11
2022-08-27T01:59:39.074Z,22.11
2022-08-27T02:02:44.536Z,22.11
2022-08-27T02:05:48.704Z,22.13
2022-08-27T02:08:51.202Z,22.16
2022-08-27T02:11:54.359Z,22.19
2022-08-27T02:14:56.947Z,22.16
2022-08-27T02:18:00.430Z,22.01
2022-08-27T02:21:03.076Z,22.03
2022-08-27T02:24:06.244Z,21.97
2022-08-27T02:27:09.561Z,21.96
2022-08-27T02:30:15.173Z,22.08
2022-08-27T02:33:18.090Z,21.95
2022-08-27T02:36:21.049Z,21.89
2022-08-27T02:39:23.609Z,21.84
2022-08-27T02:42:26.468Z,21.81
2022-08-27T02:45:29.347Z,21.65
2022-08-27T02:48:32.286Z,21.64
2022-08-27T02:51:35.259Z,21.50
2022-08-27T02:54:38.467Z,21.48
2022-08-27T02:57:42.319Z,21.51
2022-08-27T03:00:45.602Z,21.39
2022-08-27T03:03:48.224Z,21.32
2022-08-27T03:06:51.103Z,21.39
2022-08-27T03:09:53.866Z,21.23
2022-08-27T03:12:57.674Z,21.25
2022-08-27T03:16:00.541Z,21.16
2022-08-27T03:19:07.459Z,21.25
2022-08-27T03:22:10.808Z,21.29
2022-08-27T03:25:14.322Z,21.20
2022-08-27T03:28:23.209Z,21.16
2022-08-27T03:31:28.082Z,21.17
2022-08-27T03:34:31.087Z,21.12
2022-08-27T03:37:34.188Z,21.21
2022-08-27T03:40:37.063Z,21.01
2022-08-27T03:43:41.018Z,21.00
2022-08-27T03:46:44.228Z,21.06
2022-08-27T03:49:47.192Z,21.05
2022-08-27T03:52:49.974Z,21.23
2022-08-27T03:55:52.997Z,20.94
2022-08-27T03:58:55.863Z,20.93
2022-08-27T04:02:00.799Z,20.76
2022-08-27T04:05:05.182Z,20.80
2022-08-27T04:08:07.771Z,20.97
2022-08-27T04:11:10.974Z,20.98
2022-08-27T04:14:24.689Z,20.94
2022-08-27T04:17:29.582Z,21.12
2022-08-27T04:20:35.458Z,21.32
2022-08-27T04:23:40.082Z,21.30
2022-08-27T04:26:45.706Z,21.20
2022-08-27T04:29:48.932Z,21.48
2022-08-27T04:32:54.260Z,21.44
2022-08-27T04:36:07.067Z,21.47
2022-08-27T04:39:09.684Z,21.93
2022-08-27T04:42:12.496Z,22.34
2022-08-27T04:45:15.063Z,21.98
2022-08-27T04:48:19.664Z,22.02
2022-08-27T04:51:22.408Z,22.61
2022-08-27T04:54:33.047Z,22.89
2022-08-27T04:57:38.009Z,22.98
2022-08-27T05:00:48.618Z,23.00
2022-08-27T05:04:15.848Z,23.50
2022-08-27T05:08:01.952Z,23.71
2022-08-27T05:11:07.674Z,23.87
2022-08-27T05:14:12.571Z,24.43
2022-08-27T05:17:15.147Z,24.10
2022-08-27T05:20:19.475Z,24.43
2022-08-27T05:23:22.027Z,24.74
2022-08-27T05:26:26.442Z,24.41
2022-08-27T05:29:29.152Z,24.69
2022-08-27T05:32:32.733Z,25.09
2022-08-27T05:35:43.040Z,25.69
2022-08-27T05:38:46.940Z,25.60
2022-08-27T05:41:52.555Z,26.14
2022-08-27T05:44:56.375Z,26.38
2022-08-27T05:47:58.983Z,25.49
2022-08-27T05:51:25.322Z,26.78
2022-08-27T05:54:28.579Z,27.07
2022-08-27T05:57:31.487Z,27.30
2022-08-27T06:01:00.393Z,27.45
2022-08-27T06:04:05.966Z,27.25
2022-08-27T06:07:09.887Z,26.84
2022-08-27T06:10:13.208Z,27.50
2022-08-27T06:13:15.784Z,28.16
2022-08-27T06:16:19.921Z,28.62
2022-08-27T06:20:10.377Z,28.36
2022-08-27T06:23:13.325Z,28.87
2022-08-27T06:26:18.300Z,28.73
2022-08-27T06:29:23.718Z,29.09
2022-08-27T06:32:26.664Z,29.18
2022-08-27T06:35:33.543Z,29.61
2022-08-27T06:38:37.691Z,29.93
2022-08-27T06:41:43.181Z,30.09
2022-08-27T06:44:46.630Z,30.38
2022-08-27T06:48:10.937Z,30.45
2022-08-27T06:51:19.035Z,30.06
2022-08-27T06:54:22.206Z,29.79
2022-08-27T06:57:24.830Z,29.54
2022-08-27T07:00:29.421Z,29.20
2022-08-27T07:03:32.942Z,29.38
2022-08-27T07:06:56.219Z,30.57
2022-08-27T07:09:59.238Z,29.56
2022-08-27T07:13:02.183Z,30.16
2022-08-27T07:16:11.409Z,30.72
2022-08-27T07:19:14.292Z,31.00
2022-08-27T07:22:17.187Z,30.81
2022-08-27T07:25:20.531Z,30.91
2022-08-27T07:28:23.938Z,30.54
2022-08-27T07:31:26.618Z,30.73
2022-08-27T07:34:33.241Z,30.80
2022-08-27T07:37:55.793Z,31.69
2022-08-27T07:41:01.307Z,31.68
2022-08-27T07:44:26.186Z,32.62
2022-08-27T07:47:29.292Z,31.86
2022-08-27T07:50:33.880Z,31.44
2022-08-27T07:53:40.120Z,31.73
2022-08-27T07:56:54.712Z,32.48
2022-08-27T07:59:58.776Z,32.52
2022-08-27T08:03:02.348Z,31.44
2022-08-27T08:06:12.370Z,32.96
2022-08-27T08:09:15.456Z,32.72
2022-08-27T08:12:18.324Z,32.71
2022-08-27T08:15:29.553Z,33.33
2022-08-27T08:18:32.804Z,33.07
2022-08-27T08:21:36.460Z,32.57
2022-08-27T08:24:39.872Z,33.15
2022-08-27T08:27:43.405Z,33.52
2022-08-27T08:30:47.821Z,34.35
2022-08-27T08:33:50.912Z,34.42
2022-08-27T08:36:55.063Z,34.25
2022-08-27T08:39:58.069Z,34.58
2022-08-27T08:43:03.416Z,34.14
2022-08-27T08:46:09.992Z,34.19
2022-08-27T08:49:48.523Z,34.83
2022-08-27T08:53:26.717Z,34.64
2022-08-27T08:57:04.011Z,34.99
2022-08-27T09:00:15.488Z,34.97
2022-08-27T09:03:18.720Z,35.14
2022-08-27T09:06:32.990Z,34.93
2022-08-27T09:09:48.431Z,34.72
2022-08-27T09:12:56.153Z,34.93
2022-08-27T09:16:02.431Z,34.70
2022-08-27T09:19:06.385Z,35.53
2022-08-27T09:22:48.863Z,35.54
2022-08-27T09:25:51.734Z,35.56
2022-08-27T09:29:17.186Z,36.14
2022-08-27T09:32:25.223Z,35.69
2022-08-27T09:35:42.702Z,36.05
2022-08-27T09:39:03.932Z,36.47
2022-08-27T09:42:07.998Z,36.28
2022-08-27T09:45:20.124Z,36.49
2022-08-27T09:48:37.048Z,35.88
2022-08-27T09:52:06.529Z,36.56
2022-08-27T09:55:33.703Z,36.65
2022-08-27T09:58:54.122Z,37.02
2022-08-27T10:02:09.141Z,37.56
2022-08-27T10:05:22.840Z,37.47
2022-08-27T10:08:40.307Z,37.48
2022-08-27T10:11:54.122Z,37.49
2022-08-27T10:15:03.753Z,37.85
2022-08-27T10:18:25.959Z,36.44
2022-08-27T10:22:14.312Z,35.59
2022-08-27T10:25:54.779Z,36.26
2022-08-27T10:29:44.048Z,37.00
2022-08-27T10:32:58.399Z,38.37
2022-08-27T10:36:10.619Z,37.80
2022-08-27T10:39:13.613Z,37.20
2022-08-27T10:42:32.406Z,37.52
2022-08-27T10:46:22.783Z,36.64
2022-08-27T10:49:41.160Z,36.46
2022-08-27T10:52:56.355Z,36.75
2022-08-27T10:56:31.325Z,38.65
2022-08-27T10:59:57.381Z,38.08
2022-08-27T11:03:13.993Z,39.54
2022-08-27T11:06:29.038Z,37.30
2022-08-27T11:09:56.656Z,39.15
2022-08-27T11:13:34.574Z,36.93
2022-08-27T11:16:48.156Z,35.67
2022-08-27T11:20:07.555Z,36.81
2022-08-27T11:23:19.649Z,36.04
2022-08-27T11:26:22.924Z,37.10
2022-08-27T11:29:45.541Z,37.04
2022-08-27T11:32:55.019Z,36.67
2022-08-27T11:36:13.338Z,37.68
2022-08-27T11:39:52.829Z,37.22
2022-08-27T11:43:04.759Z,37.07
2022-08-27T11:46:09.826Z,37.93
2022-08-27T11:49:24.244Z,36.98
2022-08-27T11:52:30.820Z,37.22
2022-08-27T11:55:37.728Z,37.23
2022-08-27T11:58:52.293Z,37.60
2022-08-27T12:02:10.385Z,37.15
2022-08-27T12:05:21.176Z,35.88
2022-08-27T12:08:35.637Z,35.61
2022-08-27T12:12:09.572Z,34.66
2022-08-27T12:15:17.752Z,35.46
2022-08-27T12:18:42.405Z,36.56
2022-08-27T12:21:54.196Z,36.17
2022-08-27T12:24:58.904Z,34.65
2022-08-27T12:28:06.092Z,34.96
2022-08-27T12:31:09.375Z,34.41
2022-08-27T12:34:19.280Z,33.90
2022-08-27T12:37:28.572Z,34.60
2022-08-27T12:40:46.007Z,34.36
2022-08-27T12:43:48.911Z,34.06
2022-08-27T12:46:59.136Z,34.91
2022-08-27T12:50:02.459Z,34.54
2022-08-27T12:53:40.732Z,34.69
2022-08-27T12:57:15.687Z,34.23
2022-08-27T13:00:26.423Z,33.96
2022-08-27T13:03:35.356Z,34.16
2022-08-27T13:06:45.481Z,33.55
2022-08-27T13:09:48.351Z,33.51
2022-08-27T13:13:11.665Z,33.53
2022-08-27T13:16:20.713Z,33.81
2022-08-27T13:19:33.566Z,34.14
2022-08-27T13:22:40.969Z,33.84
2022-08-27T13:25:55.486Z,33.64
2022-08-27T13:29:03.331Z,33.31
2022-08-27T13:32:06.869Z,33.71
2022-08-27T13:35:10.342Z,33.63
2022-08-27T13:38:15.653Z,33.79
2022-08-27T13:41:29.036Z,33.89
2022-08-27T13:44:40.466Z,33.84
2022-08-27T13:47:47.357Z,33.32
2022-08-27T13:50:53.949Z,33.44
2022-08-27T13:54:15.796Z,33.54
2022-08-27T13:57:31.357Z,33.08
2022-08-27T14:00:34.670Z,33.35
2022-08-27T14:03:51.192Z,33.74
2022-08-27T14:06:57.046Z,33.32
2022-08-27T14:10:07.534Z,33.36
2022-08-27T14:13:29.424Z,33.20
2022-08-27T14:16:34.181Z,33.37
2022-08-27T14:19:37.335Z,33.39
2022-08-27T14:22:40.764Z,33.25
2022-08-27T14:25:44.143Z,33.32
2022-08-27T14:28:47.269Z,33.64
2022-08-27T14:31:50.711Z,33.43
2022-08-27T14:34:53.676Z,32.89
2022-08-27T14:37:57.208Z,33.14
2022-08-27T14:41:00.497Z,33.06
2022-08-27T14:44:04.116Z,32.92
2022-08-27T14:47:10.594Z,32.69
2022-08-27T14:50:14.149Z,32.78
2022-08-27T14:53:17.548Z,32.93
2022-08-27T14:56:21.364Z,33.03
2022-08-27T14:59:24.979Z,32.92
2022-08-27T15:02:28.563Z,32.97
2022-08-27T15:05:31.465Z,32.81
2022-08-27T15:08:35.067Z,32.79
2022-08-27T15:11:41.656Z,32.78
2022-08-27T15:14:44.876Z,32.76
2022-08-27T15:17:51.088Z,32.92
2022-08-27T15:20:55.325Z,32.79
2022-08-27T15:24:04.207Z,32.48
2022-08-27T15:27:06.750Z,32.51
2022-08-27T15:30:13.581Z,32.64
2022-08-27T15:33:16.389Z,32.56
2022-08-27T15:36:19.361Z,32.50
2022-08-27T15:39:23.159Z,32.37
2022-08-27T15:42:26.617Z,32.25
2022-08-27T15:45:32.352Z,32.17
2022-08-27T15:48:35.317Z,32.25
2022-08-27T15:51:38.351Z,32.20
2022-08-27T15:54:41.323Z,32.22
2022-08-27T15:57:43.946Z,32.07
2022-08-27T16:00:46.858Z,32.17
2022-08-27T16:03:50.156Z,32.05
2022-08-27T16:06:53.608Z,31.99
2022-08-27T16:09:56.594Z,32.01
2022-08-27T16:12:59.346Z,31.97
2022-08-27T16:16:02.810Z,31.86
2022-08-27T16:19:07.619Z,31.85
2022-08-27T16:22:14.765Z,31.81
2022-08-27T16:25:20.919Z,31.69
2022-08-27T16:28:25.105Z,31.68
2022-08-27T16:31:28.183Z,31.50
2022-08-27T16:34:35.886Z,31.45
2022-08-27T16:37:38.391Z,31.37
2022-08-27T16:40:52.943Z,31.40
2022-08-27T16:43:55.668Z,31.28
2022-08-27T16:46:58.703Z,31.19
2022-08-27T16:50:24.344Z,31.07
2022-08-27T16:53:31.832Z,31.02
2022-08-27T16:56:37.855Z,31.01
2022-08-27T16:59:42.202Z,30.96
2022-08-27T17:02:45.085Z,30.86
2022-08-27T17:05:50.259Z,30.92
2022-08-27T17:08:54.399Z,30.75
2022-08-27T17:11:58.505Z,30.75
2022-08-27T17:15:01.528Z,30.67
2022-08-27T17:18:04.891Z,30.58
2022-08-27T17:21:07.729Z,30.47
2022-08-27T17:24:12.518Z,30.33
2022-08-27T17:27:17.881Z,30.20
2022-08-27T17:30:21.161Z,30.10
2022-08-27T17:33:39.172Z,30.03
2022-08-27T17:36:44.424Z,30.06
2022-08-27T17:39:47.574Z,29.97
2022-08-27T17:42:51.910Z,29.80
2022-08-27T17:45:55.032Z,29.80
2022-08-27T17:48:58.086Z,29.69
2022-08-27T17:52:05.107Z,29.63
2022-08-27T17:55:08.522Z,29.61
2022-08-27T17:58:11.258Z,29.63
2022-08-27T18:01:17.999Z,29.58
2022-08-27T18:04:21.840Z,29.40
2022-08-27T18:07:25.063Z,29.19
2022-08-27T18:10:28.522Z,29.19
2022-08-27T18:13:32.866Z,29.25
2022-08-27T18:16:36.100Z,29.29
2022-08-27T18:19:45.028Z,29.25
2022-08-27T18:22:49.222Z,29.21
2022-08-27T18:25:52.135Z,29.15
2022-08-27T18:28:55.901Z,29.12
2022-08-27T18:31:58.755Z,28.91
2022-08-27T18:35:09.200Z,28.80
2022-08-27T18:38:12.167Z,28.78
2022-08-27T18:41:15.273Z,28.77
2022-08-27T18:44:19.164Z,28.67
2022-08-27T18:47:22.295Z,28.52
2022-08-27T18:50:25.397Z,28.56
2022-08-27T18:53:33.442Z,28.34
2022-08-27T18:56:36.065Z,28.24
2022-08-27T18:59:39.072Z,28.18
2022-08-27T19:02:42.966Z,28.10
2022-08-27T19:05:46.106Z,28.11
2022-08-27T19:08:50.626Z,28.02
2022-08-27T19:11:53.538Z,28.11
2022-08-27T19:18:27.819Z,28.04
2022-08-27T19:21:36.977Z,27.88
2022-08-27T19:24:43.428Z,27.79
2022-08-27T19:27:47.678Z,27.72
2022-08-27T19:30:50.647Z,27.66
2022-08-27T19:33:54.353Z,27.54
2022-08-27T19:36:59.243Z,27.47
2022-08-27T19:40:02.035Z,27.37
2022-08-27T19:43:05.277Z,27.30
2022-08-27T19:46:08.335Z,27.27
2022-08-27T19:49:11.443Z,27.19
2022-08-27T19:52:14.833Z,27.08
2022-08-27T19:55:20.934Z,27.13
2022-08-27T19:58:24.540Z,27.13
2022-08-27T20:01:28.700Z,27.10
2022-08-27T20:04:34.898Z,27.03
2022-08-27T20:07:40.230Z,27.03
2022-08-27T20:10:47.297Z,27.04
2022-08-27T20:13:51.000Z,26.94
2022-08-27T20:16:54.405Z,26.84
2022-08-27T20:19:59.913Z,26.83
2022-08-27T20:23:05.178Z,26.81
2022-08-27T20:26:08.294Z,26.54
2022-08-27T20:29:15.090Z,26.50
2022-08-27T20:32:35.905Z,26.43
2022-08-27T20:35:43.227Z,26.42
2022-08-27T20:38:46.244Z,26.37
2022-08-27T20:41:49.364Z,26.43
2022-08-27T20:44:52.794Z,26.28
2022-08-27T20:48:04.195Z,26.25
2022-08-27T20:51:07.179Z,26.26
2022-08-27T20:54:10.451Z,26.23
2022-08-27T20:57:13.317Z,26.07
2022-08-27T21:00:22.480Z,25.97
2022-08-27T21:03:25.577Z,25.98
2022-08-27T21:06:32.984Z,25.93
2022-08-27T21:09:36.194Z,25.91
2022-08-27T21:13:02.201Z,25.75
2022-08-27T21:16:07.544Z,25.62
2022-08-27T21:19:10.639Z,25.54
2022-08-27T21:22:13.175Z,25.54
2022-08-27T21:25:16.228Z,25.47
2022-08-27T21:28:21.252Z,25.46
2022-08-27T21:31:25.368Z,25.37
2022-08-27T21:34:30.970Z,25.45
2022-08-27T21:37:35.255Z,25.38
2022-08-27T21:40:41.126Z,25.38
2022-08-27T21:43:44.301Z,25.30
2022-08-27T21:46:47.047Z,25.25
2022-08-27T21:49:50.345Z,25.35
2022-08-27T21:52:53.907Z,25.37
2022-08-27T21:55:56.849Z,25.33
2022-08-27T21:58:59.558Z,25.22
2022-08-27T22:02:05.175Z,25.28
2022-08-27T22:05:16.834Z,25.29
2022-08-27T22:08:21.984Z,25.07
2022-08-27T22:11:25.732Z,25.04
2022-08-27T22:14:28.650Z,25.01
2022-08-27T22:17:31.596Z,24.83
2022-08-27T22:20:34.944Z,24.76
2022-08-27T22:23:37.887Z,24.80
2022-08-27T22:26:40.447Z,24.70
2022-08-27T22:29:43.570Z,24.74
2022-08-27T22:32:46.336Z,24.69
2022-08-27T22:35:49.242Z,24.70
2022-08-27T22:38:51.862Z,24.69
2022-08-27T22:41:56.500Z,24.72
2022-08-27T22:44:59.069Z,24.57
2022-08-27T22:48:02.264Z,24.49
2022-08-27T22:51:04.907Z,24.41
2022-08-27T22:54:08.010Z,24.23
2022-08-27T22:57:10.799Z,24.35
2022-08-27T23:00:18.952Z,24.36
2022-08-27T23:03:21.756Z,24.50
2022-08-27T23:06:24.783Z,24.38
2022-08-27T23:09:29.056Z,24.32
2022-08-27T23:12:34.270Z,24.24
2022-08-27T23:15:42.297Z,24.33
2022-08-27T23:18:45.740Z,24.24
2022-08-27T23:21:48.619Z,24.11
2022-08-27T23:28:34.885Z,24.05
2022-08-27T23:31:38.552Z,24.07
2022-08-27T23:34:41.173Z,23.94
2022-08-27T23:37:44.058Z,23.92
2022-08-27T23:40:48.376Z,23.88
2022-08-27T23:43:51.365Z,23.96
2022-08-27T23:46:53.988Z,23.91
2022-08-27T23:49:57.094Z,23.88
2022-08-27T23:53:00.361Z,23.73
2022-08-27T23:56:03.686Z,23.77
2022-08-27T23:59:06.313Z,23.62
